Time;durP1;ratioP1;P1;durP2;ratioP2;P2;SDS_P1;SDS_P2;PMS_P1;PMS_P2;Temp;Humidity;BMP_temperature;BMP_pressure;BME280_temperature;BME280_humidity;BME280_pressure;Samples;Min_cycle;Max_cycle;Signal;HPM_P1;HPM_P2
2023/09/04 00:00:43;;;;;;;3.03;2.22;;;13.70;1.00;;;;;;5006010;28;20183;-70
2023/09/04 00:03:09;;;;;;;2.80;2.05;;;13.60;99.90;;;;;;5005405;28;20246;-70
2023/09/04 00:05:35;;;;;;;3.08;2.25;;;13.60;1.00;;;;;;5005241;28;20210;-69
2023/09/04 00:08:01;;;;;;;2.60;2.20;;;13.60;1.00;;;;;;5002612;28;20678;-69
2023/09/04 00:10:27;;;;;;;2.50;2.30;;;13.60;1.00;;;;;;5005464;28;20184;-69
2023/09/04 00:12:53;;;;;;;2.75;2.30;;;13.60;1.00;;;;;;5005203;28;20210;-69
2023/09/04 00:15:20;;;;;;;2.45;2.30;;;13.60;99.90;;;;;;5005151;28;20207;-69
2023/09/04 00:17:51;;;;;;;2.50;2.30;;;13.60;99.90;;;;;;5004854;28;20243;-69
2023/09/04 00:20:17;;;;;;;3.20;2.30;;;13.60;99.90;;;;;;5005628;28;20174;-69
2023/09/04 00:22:43;;;;;;;2.42;2.30;;;13.60;99.90;;;;;;5004944;28;20261;-69
2023/09/04 00:25:09;;;;;;;2.50;2.30;;;13.60;1.00;;;;;;5004750;28;20299;-70
2023/09/04 00:27:35;;;;;;;3.10;2.50;;;13.60;99.90;;;;;;5004781;28;20192;-69
2023/09/04 00:30:00;;;;;;;2.50;2.25;;;13.50;99.90;;;;;;5005363;28;20211;-70
2023/09/04 00:32:26;;;;;;;3.35;2.40;;;13.60;99.90;;;;;;5004961;28;20541;-70
2023/09/04 00:34:52;;;;;;;2.92;2.70;;;13.60;99.90;;;;;;5004321;28;20188;-70
2023/09/04 00:37:17;;;;;;;2.60;2.40;;;13.60;99.90;;;;;;5003865;28;20194;-70
2023/09/04 00:39:43;;;;;;;2.42;2.22;;;13.60;99.90;;;;;;5005080;28;20203;-70
2023/09/04 00:42:10;;;;;;;3.45;2.30;;;13.60;99.90;;;;;;5004753;28;20214;-70
2023/09/04 00:44:36;;;;;;;3.45;2.42;;;13.50;99.90;;;;;;5005413;28;20175;-70
2023/09/04 00:47:02;;;;;;;2.30;2.10;;;13.40;99.90;;;;;;5003686;28;20273;-70
2023/09/04 00:49:29;;;;;;;2.70;2.15;;;13.40;1.00;;;;;;5005539;28;20199;-70
2023/09/04 00:51:56;;;;;;;2.67;2.13;;;13.40;99.90;;;;;;5003687;28;20541;-69
2023/09/04 00:54:23;;;;;;;2.40;2.20;;;13.40;99.90;;;;;;5001902;28;20175;-70
2023/09/04 00:56:51;;;;;;;2.53;2.33;;;13.40;99.90;;;;;;5004052;28;20433;-69
2023/09/04 00:59:18;;;;;;;2.53;2.33;;;13.30;99.90;;;;;;5004952;28;20210;-69
2023/09/04 01:01:44;;;;;;;2.40;2.20;;;13.30;99.90;;;;;;5004265;28;20217;-70
2023/09/04 01:04:09;;;;;;;2.83;2.33;;;13.20;99.90;;;;;;5005026;28;20180;-70
2023/09/04 01:06:35;;;;;;;2.92;2.38;;;13.20;99.90;;;;;;5003564;28;20199;-69
2023/09/04 01:09:01;;;;;;;2.40;2.20;;;13.20;99.90;;;;;;5004868;28;20579;-69
2023/09/04 01:11:42;;;;;;;2.75;2.40;;;13.30;99.90;;;;;;5004397;28;20598;-70
2023/09/04 01:14:13;;;;;;;3.13;2.53;;;13.40;99.90;;;;;;5005046;28;20594;-69
2023/09/04 01:16:39;;;;;;;2.47;2.28;;;13.40;99.90;;;;;;5003858;28;20188;-70
2023/09/04 01:19:10;;;;;;;2.70;2.20;;;13.20;99.90;;;;;;5004254;28;20199;-70
2023/09/04 01:21:37;;;;;;;2.50;2.30;;;13.30;99.90;;;;;;5004325;28;20203;-70
2023/09/04 01:24:03;;;;;;;2.60;2.42;;;13.40;99.90;;;;;;5004701;28;20187;-70
2023/09/04 01:26:49;;;;;;;2.70;2.50;;;13.30;99.90;;;;;;5003780;28;20223;-70
2023/09/04 01:29:47;;;;;;;2.67;2.15;;;13.20;99.90;;;;;;5004308;28;20953;-70
2023/09/04 01:32:43;;;;;;;3.88;2.22;;;13.20;99.90;;;;;;5004038;28;20211;-70
2023/09/04 01:35:11;;;;;;;2.50;2.30;;;13.20;99.90;;;;;;4999421;28;20570;-70
2023/09/04 01:37:38;;;;;;;3.72;2.45;;;13.10;99.90;;;;;;5003859;28;20663;-70
2023/09/04 01:40:04;;;;;;;2.40;2.20;;;13.00;99.90;;;;;;5004414;28;20241;-70
2023/09/04 01:42:30;;;;;;;2.95;2.53;;;12.90;99.90;;;;;;5000705;28;20204;-70
2023/09/04 01:44:57;;;;;;;2.75;2.10;;;12.90;99.90;;;;;;4986062;28;20188;-70
2023/09/04 01:47:22;;;;;;;2.28;2.08;;;12.90;99.90;;;;;;5004840;28;20211;-70
2023/09/04 01:49:49;;;;;;;2.13;2.03;;;12.90;99.90;;;;;;4990799;28;20179;-70
2023/09/04 01:52:14;;;;;;;2.50;2.30;;;12.90;1.00;;;;;;5008085;28;20684;-70
2023/09/04 01:54:40;;;;;;;3.38;2.30;;;12.90;1.00;;;;;;5007821;28;20286;-71
2023/09/04 01:57:06;;;;;;;3.13;2.47;;;12.90;99.90;;;;;;5007262;28;20198;-70
2023/09/04 01:59:33;;;;;;;3.50;2.60;;;12.90;1.00;;;;;;5007732;28;20241;-70
2023/09/04 02:01:59;;;;;;;2.67;2.47;;;12.80;1.00;;;;;;5007489;28;20211;-69
2023/09/04 02:04:24;;;;;;;2.50;2.30;;;12.90;1.00;;;;;;5007959;28;20182;-70
2023/09/04 02:06:50;;;;;;;2.65;2.33;;;12.80;1.00;;;;;;5006577;28;20184;-70
2023/09/04 02:09:16;;;;;;;2.38;2.17;;;12.90;1.00;;;;;;5007482;28;20233;-70
2023/09/04 02:11:41;;;;;;;2.40;2.22;;;12.90;1.00;;;;;;5007302;28;20192;-70
2023/09/04 02:14:07;;;;;;;3.40;2.65;;;12.80;1.00;;;;;;5007931;28;20211;-71
2023/09/04 02:16:33;;;;;;;2.60;2.40;;;12.80;1.00;;;;;;5006359;28;20677;-70
2023/09/04 02:18:58;;;;;;;6.57;2.78;;;12.80;1.00;;;;;;5007397;28;20249;-70
2023/09/04 02:21:24;;;;;;;2.95;2.50;;;12.80;1.00;;;;;;5006935;28;20207;-70
2023/09/04 02:23:50;;;;;;;2.90;2.60;;;12.80;1.00;;;;;;5007287;28;20195;-70
2023/09/04 02:26:16;;;;;;;2.53;2.33;;;12.70;1.00;;;;;;5006516;28;20194;-70
2023/09/04 02:28:41;;;;;;;4.88;2.78;;;12.70;1.00;;;;;;5006948;28;20298;-70
2023/09/04 02:31:08;;;;;;;2.67;2.47;;;12.80;1.00;;;;;;5007064;28;20187;-70
2023/09/04 02:33:34;;;;;;;3.08;2.28;;;12.70;1.00;;;;;;4989711;28;20641;-70
2023/09/04 02:36:00;;;;;;;2.22;2.13;;;12.70;1.00;;;;;;5006693;28;20206;-70
2023/09/04 02:38:25;;;;;;;2.35;2.20;;;12.50;1.00;;;;;;5006567;28;20671;-70
2023/09/04 02:40:51;;;;;;;2.63;1.98;;;12.60;1.00;;;;;;5007096;28;20199;-70
2023/09/04 02:43:17;;;;;;;2.50;2.30;;;12.60;1.00;;;;;;5006817;28;20187;-70
2023/09/04 02:45:42;;;;;;;2.63;2.42;;;12.70;1.00;;;;;;5006300;28;20180;-70
2023/09/04 02:48:08;;;;;;;2.92;2.17;;;12.60;1.00;;;;;;5006439;28;20242;-70
2023/09/04 02:50:34;;;;;;;2.22;2.08;;;12.60;1.00;;;;;;4989599;28;20283;-70
2023/09/04 02:53:00;;;;;;;2.42;2.22;;;12.50;1.00;;;;;;4999814;28;20183;-70
2023/09/04 02:55:25;;;;;;;2.75;2.25;;;12.50;1.00;;;;;;5006439;28;20564;-70
2023/09/04 02:57:51;;;;;;;2.78;2.58;;;12.50;1.00;;;;;;5006049;28;20350;-70
2023/09/04 03:00:17;;;;;;;2.78;2.58;;;12.50;37.80;;;;;;5005981;28;20206;-70
2023/09/04 03:02:42;;;;;;;2.75;2.50;;;12.50;1.00;;;;;;5003569;28;20262;-70
2023/09/04 03:05:08;;;;;;;2.92;2.00;;;12.50;99.90;;;;;;5006194;28;20309;-70
2023/09/04 03:07:34;;;;;;;3.05;2.13;;;12.60;1.00;;;;;;5006068;28;20203;-70
2023/09/04 03:10:01;;;;;;;2.45;2.25;;;12.60;1.00;;;;;;5006681;28;20669;-70
2023/09/04 03:12:29;;;;;;;2.22;2.08;;;12.60;1.00;;;;;;4988995;28;20997;-70
2023/09/04 03:15:04;;;;;;;3.13;2.92;;;12.60;1.00;;;;;;5006437;28;20215;-70
2023/09/04 03:17:31;;;;;;;2.40;2.10;;;12.60;1.00;;;;;;5005560;28;20642;-70
2023/09/04 03:19:58;;;;;;;3.17;2.08;;;12.70;1.00;;;;;;5003226;28;20698;-69
2023/09/04 03:22:25;;;;;;;2.65;2.45;;;12.60;1.00;;;;;;5003064;28;20215;-70
2023/09/04 03:24:51;;;;;;;2.67;2.22;;;12.50;1.00;;;;;;4988288;28;20999;-70
2023/09/04 03:27:17;;;;;;;2.30;2.20;;;12.50;1.00;;;;;;5005424;28;20263;-70
2023/09/04 03:29:43;;;;;;;3.25;2.30;;;12.50;1.00;;;;;;5006120;28;20262;-71
2023/09/04 03:32:09;;;;;;;3.30;2.45;;;12.40;1.00;;;;;;5005879;28;20183;-71
2023/09/04 03:34:34;;;;;;;2.30;2.10;;;12.50;1.00;;;;;;5006096;28;20222;-70
2023/09/04 03:37:00;;;;;;;2.72;2.20;;;12.50;1.00;;;;;;5005146;28;20188;-70
2023/09/04 03:39:26;;;;;;;2.10;1.90;;;12.40;1.00;;;;;;5006200;28;20250;-70
2023/09/04 03:41:51;;;;;;;2.05;1.95;;;12.60;1.00;;;;;;5005665;28;20218;-70
2023/09/04 03:44:17;;;;;;;2.42;2.22;;;12.60;1.00;;;;;;5006305;28;20606;-70
2023/09/04 03:46:43;;;;;;;3.95;2.70;;;12.60;1.00;;;;;;5004963;28;20214;-70
2023/09/04 03:49:09;;;;;;;2.50;2.30;;;12.50;1.00;;;;;;5005836;28;20235;-70
2023/09/04 03:51:34;;;;;;;2.72;2.10;;;12.30;1.00;;;;;;5005597;28;20184;-70
2023/09/04 03:54:02;;;;;;;2.58;2.38;;;12.40;99.90;;;;;;5006066;28;20582;-70
2023/09/04 03:56:31;;;;;;;2.80;2.20;;;12.30;14.00;;;;;;4987457;28;20705;-70
2023/09/04 03:58:57;;;;;;;2.60;2.40;;;12.20;99.90;;;;;;5005315;28;20211;-70
2023/09/04 04:01:23;;;;;;;3.80;2.85;;;12.20;99.90;;;;;;5005164;28;20199;-70
2023/09/04 04:03:50;;;;;;;3.67;2.95;;;12.20;99.90;;;;;;5005641;28;20219;-70
2023/09/04 04:06:16;;;;;;;3.08;2.60;;;12.10;99.90;;;;;;5004921;28;20175;-70
2023/09/04 04:08:42;;;;;;;2.60;2.40;;;12.20;99.90;;;;;;5005398;28;20203;-70
2023/09/04 04:11:07;;;;;;;3.30;2.80;;;12.20;99.90;;;;;;5005297;28;20194;-70
2023/09/04 04:13:33;;;;;;;2.90;2.50;;;12.10;99.90;;;;;;5005276;28;20183;-70
2023/09/04 04:16:00;;;;;;;4.65;2.60;;;12.20;99.90;;;;;;5004764;28;20191;-70
2023/09/04 04:18:27;;;;;;;3.45;2.83;;;12.40;99.90;;;;;;5004728;28;20286;-70
2023/09/04 04:20:53;;;;;;;2.50;2.30;;;12.50;1.00;;;;;;5005204;28;20179;-70
2023/09/04 04:23:19;;;;;;;2.95;2.47;;;12.50;1.00;;;;;;5005054;28;20211;-70
2023/09/04 04:25:44;;;;;;;2.83;2.22;;;12.50;1.00;;;;;;4986722;28;20222;-70
2023/09/04 04:28:10;;;;;;;2.70;2.30;;;12.50;1.00;;;;;;5004737;28;20258;-70
2023/09/04 04:30:36;;;;;;;2.67;2.45;;;12.50;1.00;;;;;;5000123;28;20256;-70
2023/09/04 04:33:02;;;;;;;3.33;2.55;;;12.40;1.00;;;;;;5004889;28;20206;-69
2023/09/04 04:35:28;;;;;;;2.63;2.42;;;12.40;1.00;;;;;;5004720;28;20736;-71
2023/09/04 04:37:53;;;;;;;3.53;2.50;;;12.40;1.00;;;;;;5004502;28;20242;-70
2023/09/04 04:40:26;;;;;;;5.68;2.97;;;12.40;1.00;;;;;;5004988;28;20214;-70
2023/09/04 04:42:51;;;;;;;3.97;2.75;;;12.30;1.00;;;;;;5004522;28;20860;-70
2023/09/04 04:45:17;;;;;;;2.78;2.58;;;12.30;1.00;;;;;;5004419;28;20187;-69
2023/09/04 04:47:43;;;;;;;3.42;3.13;;;12.30;1.00;;;;;;4986673;28;20726;-70
2023/09/04 04:50:09;;;;;;;3.30;3.00;;;12.30;1.00;;;;;;5004883;28;20184;-70
2023/09/04 04:52:35;;;;;;;3.65;2.72;;;12.30;1.00;;;;;;5004804;28;20246;-70
2023/09/04 04:55:01;;;;;;;3.05;2.80;;;12.20;1.00;;;;;;5004351;28;20227;-70
2023/09/04 04:57:27;;;;;;;2.85;2.65;;;12.10;1.00;;;;;;5004067;28;20218;-70
2023/09/04 04:59:52;;;;;;;3.38;3.08;;;12.10;1.00;;;;;;5004486;28;20543;-70
2023/09/04 05:02:18;;;;;;;3.50;3.20;;;12.10;1.00;;;;;;5004352;28;20607;-70
2023/09/04 05:04:47;;;;;;;3.50;3.20;;;12.10;1.00;;;;;;5004339;28;20939;-70
2023/09/04 05:07:14;;;;;;;3.58;3.28;;;12.20;1.00;;;;;;5004425;28;20767;-70
2023/09/04 05:09:40;;;;;;;3.10;2.75;;;12.10;1.00;;;;;;5004993;28;20183;-70
2023/09/04 05:12:06;;;;;;;3.30;3.10;;;12.30;1.00;;;;;;5004813;28;20559;-70
2023/09/04 05:14:33;;;;;;;3.30;3.00;;;12.40;1.00;;;;;;5004218;28;20195;-70
2023/09/04 05:16:58;;;;;;;4.00;3.17;;;12.40;1.00;;;;;;5004035;28;20192;-70
2023/09/04 05:19:24;;;;;;;4.03;3.10;;;12.40;1.00;;;;;;5004206;28;20204;-70
2023/09/04 05:21:50;;;;;;;3.58;3.03;;;12.40;1.00;;;;;;5005671;28;20203;-71
2023/09/04 05:24:15;;;;;;;3.22;2.92;;;12.40;1.00;;;;;;5008618;28;20262;-71
2023/09/04 05:26:41;;;;;;;3.97;2.97;;;12.50;1.00;;;;;;5008310;28;20194;-71
2023/09/04 05:29:06;;;;;;;3.30;2.90;;;12.50;1.00;;;;;;4991095;28;20250;-71
2023/09/04 05:31:32;;;;;;;3.78;2.95;;;12.50;1.00;;;;;;5009082;28;20705;-71
2023/09/04 05:33:58;;;;;;;3.13;2.83;;;12.50;1.00;;;;;;5008898;28;20191;-71
2023/09/04 05:36:23;;;;;;;6.60;3.55;;;12.60;1.00;;;;;;5008355;28;20184;-71
2023/09/04 05:38:49;;;;;;;3.22;2.92;;;12.60;1.00;;;;;;5008723;28;20250;-70
2023/09/04 05:41:15;;;;;;;3.28;2.95;;;12.70;1.00;;;;;;5009129;28;20655;-70
2023/09/04 05:43:41;;;;;;;3.45;3.10;;;12.70;1.00;;;;;;5009083;28;20192;-70
2023/09/04 05:46:06;;;;;;;3.08;2.75;;;12.70;1.00;;;;;;5008801;28;20611;-70
2023/09/04 05:48:35;;;;;;;3.33;3.03;;;12.80;1.00;;;;;;5008488;28;20219;-70
2023/09/04 05:51:03;;;;;;;3.45;3.15;;;12.80;1.00;;;;;;5009360;28;20658;-70
2023/09/04 05:53:29;;;;;;;3.30;3.00;;;12.90;1.00;;;;;;5008777;28;20258;-70
2023/09/04 05:56:09;;;;;;;2.90;2.70;;;12.90;1.00;;;;;;5008385;28;20323;-71
2023/09/04 05:58:47;;;;;;;3.17;2.97;;;13.00;1.00;;;;;;5007859;28;20239;-70
2023/09/04 06:01:14;;;;;;;3.15;2.85;;;13.00;1.00;;;;;;5008021;28;20668;-67
2023/09/04 06:03:40;;;;;;;3.65;3.35;;;13.00;1.00;;;;;;4990550;28;20554;-70
2023/09/04 06:06:06;;;;;;;4.38;3.40;;;12.70;4.10;;;;;;5007796;28;20715;-71
2023/09/04 06:08:35;;;;;;;4.30;3.90;;;13.10;44.50;;;;;;5006991;28;20222;-70
2023/09/04 06:11:02;;;;;;;3.47;3.10;;;13.10;99.90;;;;;;5007087;28;20200;-70
2023/09/04 06:13:29;;;;;;;4.07;3.67;;;13.20;99.90;;;;;;5008023;28;20176;-70
2023/09/04 06:15:55;;;;;;;3.45;3.25;;;13.20;99.90;;;;;;5006996;28;20625;-70
2023/09/04 06:18:21;;;;;;;3.53;3.22;;;13.30;99.90;;;;;;5005413;28;20265;-71
2023/09/04 06:20:47;;;;;;;4.55;3.60;;;13.30;99.90;;;;;;5004997;28;20440;-71
2023/09/04 06:23:13;;;;;;;4.68;4.22;;;13.40;99.90;;;;;;5005658;28;20223;-70
2023/09/04 06:25:41;;;;;;;5.43;4.82;;;13.30;99.90;;;;;;5006876;28;20273;-70
2023/09/04 06:28:08;;;;;;;4.65;4.03;;;13.40;3.90;;;;;;5007208;28;20234;-71
2023/09/04 06:30:34;;;;;;;6.18;4.93;;;13.40;1.00;;;;;;5007900;28;20188;-71
2023/09/04 06:33:00;;;;;;;5.20;4.70;;;13.40;1.00;;;;;;5003316;28;20179;-70
2023/09/04 06:35:26;;;;;;;5.78;4.72;;;13.50;99.90;;;;;;5004386;28;20187;-70
2023/09/04 06:37:51;;;;;;;5.05;4.55;;;13.50;1.00;;;;;;5002609;28;20303;-71
2023/09/04 06:40:17;;;;;;;5.38;4.60;;;13.60;1.00;;;;;;5004364;28;20602;-71
2023/09/04 06:42:43;;;;;;;5.35;4.07;;;13.80;99.90;;;;;;5003254;28;20219;-71
2023/09/04 06:45:09;;;;;;;4.00;3.60;;;14.40;1.00;;;;;;5004466;28;20188;-71
2023/09/04 06:47:34;;;;;;;3.30;3.00;;;15.20;99.90;;;;;;5005707;28;20196;-71
2023/09/04 06:50:01;;;;;;;2.67;2.47;;;15.90;1.00;;;;;;5006635;28;20643;-71
2023/09/04 06:52:27;;;;;;;3.25;2.75;;;16.70;99.90;;;;;;5006451;28;20599;-71
2023/09/04 06:54:52;;;;;;;3.83;2.75;;;17.40;85.30;;;;;;5054465;22;20230;-86
2023/09/04 06:57:18;;;;;;;3.58;2.83;;;17.80;1.00;;;;;;5033729;28;20182;-89
2023/09/04 06:59:44;;;;;;;3.28;2.50;;;17.90;1.00;;;;;;5032053;28;20201;-88
2023/09/04 07:02:12;;;;;;;3.00;2.80;;;17.80;1.00;;;;;;5026985;28;20210;-86
2023/09/04 07:04:38;;;;;;;2.97;2.70;;;17.30;1.00;;;;;;5043031;28;20550;-87
2023/09/04 07:07:03;;;;;;;3.53;3.22;;;17.00;1.00;;;;;;5025145;28;20175;-87
2023/09/04 07:09:29;;;;;;;3.60;3.30;;;16.50;18.90;;;;;;5021377;28;20283;-86
2023/09/04 07:11:55;;;;;;;3.50;3.20;;;16.20;99.90;;;;;;5030438;28;20232;-87
2023/09/04 07:14:20;;;;;;;5.38;3.90;;;16.00;99.90;;;;;;5024300;28;20191;-87
2023/09/04 07:16:46;;;;;;;4.50;3.85;;;15.90;1.00;;;;;;5025295;28;20210;-87
2023/09/04 07:19:15;;;;;;;4.07;3.67;;;15.70;1.00;;;;;;5024640;28;20305;-87
2023/09/04 07:21:40;;;;;;;3.83;3.50;;;15.70;53.30;;;;;;5038467;28;20198;-88
2023/09/04 07:24:06;;;;;;;4.03;3.72;;;15.80;72.90;;;;;;5025581;28;20185;-87
2023/09/04 07:26:32;;;;;;;4.20;3.80;;;15.80;99.90;;;;;;5024938;28;20183;-86
2023/09/04 07:28:58;;;;;;;3.80;3.20;;;15.90;99.90;;;;;;5023908;28;20232;-88
2023/09/04 07:31:23;;;;;;;4.25;3.85;;;16.00;37.50;;;;;;5023984;28;20182;-87
2023/09/04 07:33:50;;;;;;;4.38;3.60;;;16.10;1.00;;;;;;5022091;28;20186;-87
2023/09/04 07:36:16;;;;;;;3.63;3.33;;;16.20;1.00;;;;;;5021760;28;20186;-87
2023/09/04 07:38:43;;;;;;;3.65;3.40;;;16.30;1.00;;;;;;5030409;28;20190;-88
2023/09/04 07:41:09;;;;;;;3.70;3.30;;;16.50;1.00;;;;;;5036125;28;20269;-87
2023/09/04 07:43:35;;;;;;;4.15;3.75;;;16.50;1.00;;;;;;5022104;28;20179;-88
2023/09/04 07:46:03;;;;;;;3.58;3.10;;;16.60;99.90;;;;;;5020607;28;20532;-88
2023/09/04 07:48:29;;;;;;;3.95;3.22;;;16.80;99.90;;;;;;5021877;28;20176;-87
2023/09/04 07:50:56;;;;;;;3.67;3.13;;;16.90;99.90;;;;;;5020302;28;20710;-89
2023/09/04 07:53:22;;;;;;;6.30;3.50;;;17.00;99.90;;;;;;5027626;28;20213;-87
2023/09/04 07:55:49;;;;;;;4.10;3.00;;;17.10;99.90;;;;;;5021579;28;20205;-87
2023/09/04 07:58:15;;;;;;;3.67;3.38;;;17.30;99.90;;;;;;5021337;28;20685;-87
2023/09/04 08:00:51;;;;;;;4.97;3.20;;;17.40;99.90;;;;;;5019180;28;20297;-88
2023/09/04 08:03:19;;;;;;;3.88;3.10;;;17.40;99.90;;;;;;5018584;28;20244;-87
2023/09/04 08:05:45;;;;;;;3.63;3.33;;;17.60;99.90;;;;;;5020265;28;20182;-88
2023/09/04 08:08:11;;;;;;;6.57;4.00;;;17.70;99.90;;;;;;5029978;28;20597;-86
2023/09/04 08:10:39;;;;;;;3.75;3.45;;;17.90;99.90;;;;;;5015326;28;20194;-88
2023/09/04 08:13:09;;;;;;;4.20;3.80;;;17.90;99.90;;;;;;5012781;28;20190;-87
2023/09/04 08:15:34;;;;;;;4.95;3.20;;;18.10;8.30;;;;;;5035246;28;20205;-85
2023/09/04 08:18:00;;;;;;;3.92;3.33;;;18.30;1.00;;;;;;5019621;28;20179;-87
2023/09/04 08:20:29;;;;;;;18.83;17.35;;;18.30;1.00;;;;;;5016275;28;20234;-86
2023/09/04 08:22:55;;;;;;;8.80;8.00;;;18.50;1.00;;;;;;5014249;28;20630;-86
2023/09/04 08:25:20;;;;;;;13.57;12.48;;;18.60;1.00;;;;;;5010844;28;20183;-86
2023/09/04 08:27:46;;;;;;;7.63;6.93;;;18.60;1.00;;;;;;5016621;28;20680;-85
2023/09/04 08:30:12;;;;;;;4.93;4.63;;;18.60;1.00;;;;;;5019043;28;20691;-86
2023/09/04 08:32:37;;;;;;;4.07;3.78;;;18.70;1.00;;;;;;5019994;28;20278;-86
2023/09/04 08:35:04;;;;;;;3.92;3.58;;;18.70;1.00;;;;;;5015811;28;20644;-87
2023/09/04 08:37:29;;;;;;;3.05;2.85;;;18.80;1.00;;;;;;5034683;28;20186;-87
2023/09/04 08:39:55;;;;;;;2.72;2.53;;;19.00;1.00;;;;;;5017368;28;20202;-85
2023/09/04 08:42:22;;;;;;;4.32;2.90;;;18.90;1.00;;;;;;5018070;28;20332;-86
2023/09/04 08:44:50;;;;;;;2.22;2.03;;;18.90;1.00;;;;;;5008525;28;20239;-87
2023/09/04 08:47:21;;;;;;;3.95;2.42;;;19.00;1.00;;;;;;5015118;28;20216;-87
2023/09/04 08:49:47;;;;;;;2.83;2.30;;;19.10;1.00;;;;;;5012428;28;20206;-86
2023/09/04 08:52:13;;;;;;;2.95;2.00;;;19.30;1.00;;;;;;5028622;28;20191;-87
2023/09/04 08:54:40;;;;;;;2.60;2.30;;;19.40;1.00;;;;;;5010159;28;20194;-87
2023/09/04 08:57:06;;;;;;;2.50;2.30;;;19.40;1.00;;;;;;5014736;28;20504;-86
2023/09/04 08:59:32;;;;;;;3.58;2.00;;;19.30;1.00;;;;;;5017085;28;20230;-87
2023/09/04 09:02:02;;;;;;;2.22;2.03;;;19.40;1.00;;;;;;5014151;28;20252;-87
2023/09/04 09:04:29;;;;;;;1.90;1.80;;;19.40;1.00;;;;;;5034419;28;20175;-87
2023/09/04 09:06:55;;;;;;;1.92;1.73;;;19.60;1.00;;;;;;5011979;28;20201;-86
2023/09/04 09:09:22;;;;;;;3.05;1.90;;;19.80;1.00;;;;;;5017259;28;20211;-86
2023/09/04 09:11:53;;;;;;;2.40;2.08;;;19.90;1.00;;;;;;5010903;28;20194;-86
2023/09/04 09:14:28;;;;;;;1.92;1.83;;;20.00;1.00;;;;;;5036066;28;20279;-86
2023/09/04 09:17:05;;;;;;;3.13;2.20;;;20.10;1.00;;;;;;5012540;28;20766;-87
2023/09/04 09:19:38;;;;;;;3.13;1.90;;;20.20;1.00;;;;;;5009250;28;20894;-86
2023/09/04 09:22:15;;;;;;;4.05;2.00;;;20.30;1.00;;;;;;5007835;28;20214;-86
2023/09/04 09:25:00;;;;;;;2.40;2.20;;;20.40;1.00;;;;;;5016112;28;20281;-87
2023/09/04 09:27:31;;;;;;;3.38;1.90;;;20.40;1.00;;;;;;5023635;28;20206;-86
2023/09/04 09:30:00;;;;;;;2.10;1.98;;;20.30;1.00;;;;;;5008538;28;20209;-86
2023/09/04 09:32:28;;;;;;;3.65;1.95;;;20.30;1.00;;;;;;5013567;28;20218;-87
2023/09/04 09:34:56;;;;;;;2.47;2.20;;;20.50;1.00;;;;;;5019252;28;20491;-86
2023/09/04 09:37:24;;;;;;;3.10;2.40;;;20.60;1.00;;;;;;5011306;28;20198;-86
2023/09/04 09:39:50;;;;;;;3.47;2.20;;;20.70;1.00;;;;;;5025515;28;20256;-86
2023/09/04 09:42:16;;;;;;;3.78;2.22;;;20.50;1.00;;;;;;5012631;28;20557;-86
2023/09/04 09:44:41;;;;;;;3.67;2.00;;;20.60;1.00;;;;;;5003463;28;20183;-85
2023/09/04 09:47:10;;;;;;;24.20;22.17;;;20.70;1.00;;;;;;5021645;28;20262;-86
2023/09/04 09:49:36;;;;;;;14.95;13.50;;;20.60;1.00;;;;;;5013503;28;20475;-87
2023/09/04 09:52:04;;;;;;;7.20;6.57;;;20.80;1.00;;;;;;5016431;28;20562;-86
2023/09/04 09:54:41;;;;;;;2.53;2.30;;;20.80;99.90;;;;;;5019302;28;20265;-87
2023/09/04 09:57:12;;;;;;;4.25;3.10;;;20.90;99.90;;;;;;5019979;28;20186;-87
2023/09/04 09:59:49;;;;;;;2.30;1.70;;;20.90;99.90;;;;;;5014454;28;20202;-86
2023/09/04 10:02:20;;;;;;;2.67;1.80;;;21.00;99.90;;;;;;5012259;28;20284;-86
2023/09/04 10:04:47;;;;;;;2.20;2.00;;;21.10;99.90;;;;;;5014684;28;20891;-87
2023/09/04 10:07:17;;;;;;;3.92;1.80;;;21.10;99.90;;;;;;5012305;28;20848;-87
2023/09/04 10:09:45;;;;;;;1.90;1.52;;;21.20;99.90;;;;;;5018375;28;20206;-87
2023/09/04 10:12:33;;;;;;;3.13;1.80;;;21.10;99.90;;;;;;5020638;28;20193;-87
2023/09/04 10:15:01;;;;;;;2.35;1.50;;;21.20;99.90;;;;;;5016646;28;20277;-88
2023/09/04 10:18:05;;;;;;;3.10;1.65;;;21.30;99.90;;;;;;5034835;28;20178;-87
2023/09/04 10:20:33;;;;;;;2.05;1.30;;;21.50;99.90;;;;;;4979722;28;20305;-87
2023/09/04 10:23:07;;;;;;;2.38;1.65;;;21.60;99.90;;;;;;5019646;28;20203;-87
2023/09/04 10:25:52;;;;;;;3.38;1.80;;;21.60;99.90;;;;;;5012203;28;20186;-90
2023/09/04 10:28:31;;;;;;;1.73;1.63;;;21.50;99.90;;;;;;5018510;28;20277;-89
2023/09/04 10:30:58;;;;;;;2.22;1.70;;;21.50;99.90;;;;;;5038899;28;20269;-87
2023/09/04 10:33:24;;;;;;;2.42;1.58;;;21.30;99.90;;;;;;5038837;28;20186;-88
2023/09/04 10:35:50;;;;;;;3.20;1.38;;;21.40;99.90;;;;;;5022327;28;20186;-87
2023/09/04 10:38:16;;;;;;;2.85;1.38;;;21.50;99.90;;;;;;5020369;28;20191;-87
2023/09/04 10:40:42;;;;;;;3.00;1.50;;;21.70;99.90;;;;;;5040659;28;20267;-87
2023/09/04 10:43:11;;;;;;;1.38;1.27;;;21.70;99.90;;;;;;5039003;28;20214;-86
2023/09/04 10:45:36;;;;;;;2.90;1.65;;;21.80;99.90;;;;;;5020005;28;20185;-86
2023/09/04 10:48:02;;;;;;;1.60;1.50;;;21.50;99.90;;;;;;5026041;28;20179;-87
2023/09/04 10:50:31;;;;;;;1.83;1.58;;;21.60;99.90;;;;;;5024777;28;20202;-87
2023/09/04 10:52:59;;;;;;;1.70;1.48;;;21.50;99.90;;;;;;5024339;28;20186;-87
2023/09/04 10:55:25;;;;;;;2.90;1.77;;;21.40;99.90;;;;;;5022867;28;20194;-86
2023/09/04 10:58:03;;;;;;;6.35;2.17;;;21.60;99.90;;;;;;5021522;28;20189;-87
2023/09/04 11:00:29;;;;;;;2.85;1.60;;;21.70;99.90;;;;;;5020246;28;20198;-86
2023/09/04 11:03:13;;;;;;;2.63;1.58;;;21.80;99.90;;;;;;5037829;28;20206;-88
2023/09/04 11:06:04;;;;;;;2.38;1.38;;;21.80;99.90;;;;;;5024527;28;20187;-87
2023/09/04 11:08:32;;;;;;;2.25;1.75;;;22.00;99.90;;;;;;5016315;28;20225;-89
2023/09/04 11:11:05;;;;;;;1.42;1.30;;;21.90;99.90;;;;;;5017262;28;20720;-89
2023/09/04 11:13:38;;;;;;;2.65;1.75;;;22.10;99.90;;;;;;5014658;28;20178;-88
2023/09/04 11:16:07;;;;;;;2.00;1.48;;;22.10;99.90;;;;;;5010267;28;20194;-88
2023/09/04 11:18:37;;;;;;;2.35;1.90;;;22.20;99.90;;;;;;5011839;28;20191;-88
2023/09/04 11:21:04;;;;;;;2.08;1.63;;;22.20;99.90;;;;;;5013218;28;20607;-88
2023/09/04 11:23:31;;;;;;;2.30;1.70;;;22.20;99.90;;;;;;5013548;28;20230;-88
2023/09/04 11:25:57;;;;;;;3.78;1.70;;;22.30;99.90;;;;;;5013794;28;20186;-88
2023/09/04 11:28:25;;;;;;;1.98;1.52;;;22.20;99.90;;;;;;5021103;28;20261;-88
2023/09/04 11:30:58;;;;;;;2.47;1.85;;;22.40;99.90;;;;;;5028323;28;20712;-89
2023/09/04 11:33:29;;;;;;;1.60;1.50;;;22.40;99.90;;;;;;5014389;28;20239;-88
2023/09/04 11:36:02;;;;;;;2.33;1.52;;;22.50;99.90;;;;;;5009960;28;20720;-88
2023/09/04 11:38:32;;;;;;;3.85;1.98;;;22.50;99.90;;;;;;5016360;28;20207;-88
2023/09/04 11:41:00;;;;;;;2.20;1.65;;;22.60;99.90;;;;;;5014560;28;20669;-88
2023/09/04 11:43:28;;;;;;;1.70;1.60;;;22.70;99.90;;;;;;5017861;28;20206;-87
2023/09/04 11:45:57;;;;;;;2.33;1.45;;;22.40;99.90;;;;;;5017944;28;20566;-88
2023/09/04 11:48:28;;;;;;;3.38;1.63;;;22.40;99.90;;;;;;5011737;28;20583;-88
2023/09/04 11:51:07;;;;;;;2.70;1.77;;;22.60;99.90;;;;;;5020345;28;20214;-88
2023/09/04 11:53:39;;;;;;;1.90;1.80;;;22.70;99.90;;;;;;5017251;28;20268;-88
2023/09/04 11:56:05;;;;;;;2.00;1.40;;;22.50;99.90;;;;;;5020167;28;20216;-88
2023/09/04 11:58:33;;;;;;;2.78;1.55;;;22.30;99.90;;;;;;5011664;28;20236;-88
2023/09/04 12:01:00;;;;;;;3.35;1.52;;;22.20;99.90;;;;;;5014673;28;20447;-88
2023/09/04 12:03:28;;;;;;;2.60;1.83;;;22.50;99.90;;;;;;5017135;28;20263;-87
2023/09/04 12:05:59;;;;;;;2.80;1.58;;;22.60;99.90;;;;;;5015181;28;20244;-88
2023/09/04 12:08:37;;;;;;;2.40;1.73;;;22.50;99.90;;;;;;5016462;28;20218;-88
2023/09/04 12:11:12;;;;;;;1.60;1.50;;;22.80;99.90;;;;;;5017833;28;20265;-87
2023/09/04 12:13:38;;;;;;;1.73;1.63;;;22.90;99.90;;;;;;5014691;28;20239;-89
2023/09/04 12:16:10;;;;;;;2.45;1.50;;;23.00;99.90;;;;;;5028653;28;20191;-88
2023/09/04 12:18:41;;;;;;;2.30;1.40;;;23.00;99.90;;;;;;5016773;28;20178;-88
2023/09/04 12:21:14;;;;;;;1.73;1.52;;;23.20;99.90;;;;;;5015468;28;20660;-87
2023/09/04 12:26:58;;;;;;;2.58;1.45;;;23.80;99.90;;;;;;5014709;28;20190;-87
2023/09/04 12:29:24;;;;;;;2.25;1.33;;;23.10;99.90;;;;;;5025688;28;20210;-87
2023/09/04 12:32:44;;;;;;;2.88;1.88;;;23.40;99.90;;;;;;5019785;28;20192;-89
2023/09/04 12:38:34;;;;;;;;;;;;;;;;;;;;;
2023/09/04 12:41:09;;;;;;;3.58;1.70;;;23.30;99.90;;;;;;5034041;28;20187;-89
2023/09/04 12:43:37;;;;;;;1.98;1.70;;;23.50;99.90;;;;;;5011871;28;20287;-88
2023/09/04 12:49:08;;;;;;;3.05;1.40;;;23.60;99.90;;;;;;5024631;28;20572;-88
2023/09/04 12:52:09;;;;;;;1.85;1.50;;;23.40;99.90;;;;;;4988697;28;20197;-88
2023/09/04 12:55:24;;;;;;;2.90;1.67;;;23.30;99.90;;;;;;4951755;28;20438;-88
2023/09/04 12:58:17;;;;;;;2.90;1.55;;;22.80;99.90;;;;;;5021097;28;20186;-89
2023/09/04 13:00:58;;;;;;;2.10;1.48;;;23.20;99.90;;;;;;5016792;28;20229;-88
2023/09/04 13:03:30;;;;;;;2.58;1.45;;;23.70;99.90;;;;;;5016812;28;20657;-88
2023/09/04 13:09:41;;;;;;;2.47;1.60;;;23.40;99.90;;;;;;4997046;28;20211;-88
2023/09/04 13:26:46;;;;;;;2.28;1.55;;;23.80;97.20;;;;;;4917718;29;20198;-89